Time;durP1;ratioP1;P1;durP2;ratioP2;P2;SDS_P1;SDS_P2;PMS_P1;PMS_P2;Temp;Humidity;BMP_temperature;BMP_pressure;BME280_temperature;BME280_humidity;BME280_pressure;Samples;Min_cycle;Max_cycle;Signal;HPM_P1;HPM_P2
2021/09/04 00:00:19;;;;;;;;;;;;;;;9.45;100.00;101098.41;5073557;28;19925;-71
2021/09/04 00:02:45;;;;;;;;;;;;;;;9.42;100.00;101098.59;5073309;28;20338;-71
2021/09/04 00:05:12;;;;;;;;;;;;;;;9.40;100.00;101100.56;5073328;28;20052;-71
2021/09/04 00:07:38;;;;;;;;;;;;;;;9.43;100.00;101100.34;5073155;28;20023;-71
2021/09/04 00:10:07;;;;;;;;;;;;;;;9.42;100.00;101096.75;5073467;28;19954;-71
2021/09/04 00:12:34;;;;;;;;;;;;;;;9.36;100.00;101097.19;5073015;28;20022;-71
2021/09/04 00:15:00;;;;;;;;;;;;;;;9.29;100.00;101098.59;5071709;28;20425;-71
2021/09/04 00:17:27;;;;;;;;;;;;;;;9.23;100.00;101099.03;5073423;28;20031;-71
2021/09/04 00:19:54;;;;;;;;;;;;;;;9.16;100.00;101096.72;5072936;28;20357;-71
2021/09/04 00:22:20;;;;;;;;;;;;;;;9.20;100.00;101105.53;5073478;28;19928;-71
2021/09/04 00:24:46;;;;;;;;;;;;;;;9.21;100.00;101101.84;5072939;28;19925;-71
2021/09/04 00:27:15;;;;;;;;;;;;;;;9.17;100.00;101106.59;5072970;28;20391;-71
2021/09/04 00:29:41;;;;;;;;;;;;;;;9.20;100.00;101100.97;5073084;28;19963;-71
2021/09/04 00:32:08;;;;;;;;;;;;;;;9.25;100.00;101107.91;5072886;28;19928;-71
2021/09/04 00:34:34;;;;;;;;;;;;;;;9.23;100.00;101099.03;5073069;28;19979;-71
2021/09/04 00:37:01;;;;;;;;;;;;;;;9.20;100.00;101100.09;5072470;28;20019;-71
2021/09/04 00:39:27;;;;;;;;;;;;;;;9.21;100.00;101105.41;5073155;28;20455;-71
2021/09/04 00:41:53;;;;;;;;;;;;;;;9.18;100.00;101100.22;5072646;28;19925;-71
2021/09/04 00:44:22;;;;;;;;;;;;;;;9.17;100.00;101095.75;5072723;28;19925;-71
2021/09/04 00:46:48;;;;;;;;;;;;;;;9.23;100.00;101105.28;5072331;28;20023;-71
2021/09/04 00:49:14;;;;;;;;;;;;;;;9.24;100.00;101098.06;5072590;28;20008;-71
2021/09/04 00:51:41;;;;;;;;;;;;;;;9.21;100.00;101097.28;5072559;28;20023;-71
2021/09/04 00:54:08;;;;;;;;;;;;;;;9.23;100.00;101108.00;5072536;28;19934;-71
2021/09/04 00:56:37;;;;;;;;;;;;;;;9.19;100.00;101110.06;5072310;28;19924;-71
2021/09/04 00:59:05;;;;;;;;;;;;;;;9.18;100.00;101112.91;5072131;28;19932;-71
2021/09/04 01:01:33;;;;;;;;;;;;;;;9.20;100.00;101110.94;5072873;28;19924;-71
2021/09/04 01:04:00;;;;;;;;;;;;;;;9.16;100.00;101104.00;5072171;28;19929;-71
2021/09/04 01:06:26;;;;;;;;;;;;;;;9.14;100.00;101101.41;5072252;28;20015;-71
2021/09/04 01:08:53;;;;;;;;;;;;;;;9.15;100.00;101103.16;5072359;28;20303;-71
2021/09/04 01:11:21;;;;;;;;;;;;;;;9.11;100.00;101098.03;5072303;28;20297;-71
2021/09/04 01:13:47;;;;;;;;;;;;;;;9.08;100.00;101099.09;5072294;28;20250;-71
2021/09/04 01:16:14;;;;;;;;;;;;;;;9.07;100.00;101093.81;5072022;28;20015;-71
2021/09/04 01:18:41;;;;;;;;;;;;;;;9.01;100.00;101095.09;5071947;28;19988;-71
2021/09/04 01:21:09;;;;;;;;;;;;;;;8.99;100.00;101086.19;5054162;28;20332;-71
2021/09/04 01:23:35;;;;;;;;;;;;;;;8.99;100.00;101084.38;5072220;28;19935;-71
2021/09/04 01:26:04;;;;;;;;;;;;;;;9.00;100.00;101080.66;5071845;28;20068;-71
2021/09/04 01:28:30;;;;;;;;;;;;;;;9.00;100.00;101087.94;5071671;28;19931;-71
2021/09/04 01:30:57;;;;;;;;;;;;;;;8.94;100.00;101086.53;5071896;28;19925;-71
2021/09/04 01:33:23;;;;;;;;;;;;;;;8.91;100.00;101078.59;5071784;28;19937;-71
2021/09/04 01:35:49;;;;;;;;;;;;;;;8.88;100.00;101087.81;5071521;28;20036;-71
2021/09/04 01:38:16;;;;;;;;;;;;;;;8.87;100.00;101087.91;5053763;28;20366;-71
2021/09/04 01:40:42;;;;;;;;;;;;;;;8.90;100.00;101086.81;5070999;28;20011;-72
2021/09/04 01:43:10;;;;;;;;;;;;;;;8.90;100.00;101090.41;5071846;28;20296;-71
2021/09/04 01:45:36;;;;;;;;;;;;;;;8.91;100.00;101084.00;5071272;28;20015;-71
2021/09/04 01:48:02;;;;;;;;;;;;;;;8.93;100.00;101083.94;5071267;28;20019;-71
2021/09/04 01:50:29;;;;;;;;;;;;;;;8.92;100.00;101079.47;5071620;28;20011;-71
2021/09/04 01:52:55;;;;;;;;;;;;;;;8.96;100.00;101075.59;5071383;28;20023;-71
2021/09/04 01:55:22;;;;;;;;;;;;;;;9.01;100.00;101076.16;5071075;28;20407;-71
2021/09/04 01:57:48;;;;;;;;;;;;;;;9.01;100.00;101076.16;5071039;28;19928;-71
2021/09/04 02:00:17;;;;;;;;;;;;;;;8.98;100.00;101068.22;5053551;28;19960;-71
2021/09/04 02:02:44;;;;;;;;;;;;;;;9.00;100.00;101066.28;5071151;28;19935;-71
2021/09/04 02:05:11;;;;;;;;;;;;;;;9.04;100.00;101062.38;5071251;28;19993;-71
2021/09/04 02:07:37;;;;;;;;;;;;;;;9.05;100.00;101058.72;5071306;28;20378;-71
2021/09/04 02:10:04;;;;;;;;;;;;;;;9.07;100.00;101051.31;5052996;28;19928;-71
2021/09/04 02:12:30;;;;;;;;;;;;;;;9.05;100.00;101048.72;5071142;28;19928;-71
2021/09/04 02:14:56;;;;;;;;;;;;;;;9.03;100.00;101064.22;5070990;28;19928;-71
2021/09/04 02:17:24;;;;;;;;;;;;;;;9.03;100.00;101066.94;5070943;28;19924;-71
2021/09/04 02:19:51;;;;;;;;;;;;;;;9.08;100.00;101057.63;5071018;28;19928;-71
2021/09/04 02:22:18;;;;;;;;;;;;;;;9.08;100.00;101057.63;5071239;28;20018;-71
2021/09/04 02:24:44;;;;;;;;;;;;;;;9.03;100.00;101055.22;5070984;28;19924;-71
2021/09/04 02:27:12;;;;;;;;;;;;;;;9.00;100.00;101061.72;5070743;28;19924;-71
2021/09/04 02:29:39;;;;;;;;;;;;;;;9.02;100.00;101065.19;5071091;28;19935;-71
2021/09/04 02:32:06;;;;;;;;;;;;;;;9.06;100.00;101057.75;5070859;28;19928;-71
2021/09/04 02:34:34;;;;;;;;;;;;;;;9.09;100.00;101054.81;5071128;28;19924;-71
2021/09/04 02:37:00;;;;;;;;;;;;;;;9.10;100.00;101056.53;5070534;28;19940;-71
2021/09/04 02:39:28;;;;;;;;;;;;;;;9.16;100.00;101066.06;5071090;28;19924;-71
2021/09/04 02:41:56;;;;;;;;;;;;;;;9.19;100.00;101061.31;5070987;28;20019;-71
2021/09/04 02:44:22;;;;;;;;;;;;;;;9.28;100.00;101059.78;5070825;28;19935;-71
2021/09/04 02:46:49;;;;;;;;;;;;;;;9.36;100.00;101065.53;5070415;28;20423;-71
2021/09/04 02:49:15;;;;;;;;;;;;;;;9.35;100.00;101058.41;5069149;28;20359;-71
2021/09/04 02:51:43;;;;;;;;;;;;;;;9.38;100.00;101063.59;5071187;28;19935;-71
2021/09/04 02:54:09;;;;;;;;;;;;;;;9.38;100.00;101058.16;5074908;28;20023;-71
2021/09/04 02:56:36;;;;;;;;;;;;;;;9.36;100.00;101054.69;5074364;28;20200;-71
2021/09/04 02:59:03;;;;;;;;;;;;;;;9.37;100.00;101052.88;5055422;28;19940;-71
2021/09/04 03:01:29;;;;;;;;;;;;;;;9.32;100.00;101053.19;5073123;28;19987;-71
2021/09/04 03:03:55;;;;;;;;;;;;;;;9.34;100.00;101050.34;5073589;28;19931;-71
2021/09/04 03:06:22;;;;;;;;;;;;;;;9.35;100.00;101060.22;5072759;28;19925;-71
2021/09/04 03:08:53;;;;;;;;;;;;;;;9.34;100.00;101059.38;5073067;28;19954;-71
2021/09/04 03:11:21;;;;;;;;;;;;;;;9.35;100.00;101055.69;5073485;28;20019;-71
2021/09/04 03:13:47;;;;;;;;;;;;;;;9.40;100.00;101058.06;5073139;28;20376;-71
2021/09/04 03:16:14;;;;;;;;;;;;;;;9.43;100.00;101052.41;5073238;28;19924;-71
2021/09/04 03:18:41;;;;;;;;;;;;;;;9.45;100.00;101052.34;5072818;28;19925;-71
2021/09/04 03:21:07;;;;;;;;;;;;;;;9.49;100.00;101053.84;5073394;28;19929;-71
2021/09/04 03:23:34;;;;;;;;;;;;;;;9.58;100.00;101060.44;5055041;28;19931;-71
2021/09/04 03:26:03;;;;;;;;;;;;;;;9.65;100.00;101059.88;5072886;28;19925;-71
2021/09/04 03:28:31;;;;;;;;;;;;;;;9.66;100.00;101066.16;5072978;28;19968;-71
2021/09/04 03:30:58;;;;;;;;;;;;;;;9.71;100.00;101061.28;5072793;28;20353;-71
2021/09/04 03:33:25;;;;;;;;;;;;;;;9.76;100.00;101059.09;5073197;28;19925;-71
2021/09/04 03:35:52;;;;;;;;;;;;;;;9.77;100.00;101055.41;5072609;28;19925;-71
2021/09/04 03:38:19;;;;;;;;;;;;;;;9.79;100.00;101063.44;5073002;28;19924;-71
2021/09/04 03:40:45;;;;;;;;;;;;;;;9.81;100.00;101069.63;5073015;28;19925;-71
2021/09/04 03:43:13;;;;;;;;;;;;;;;9.82;100.00;101065.91;5072684;28;19925;-71
2021/09/04 03:45:40;;;;;;;;;;;;;;;9.88;100.00;101077.19;5072454;28;19929;-71
2021/09/04 03:48:07;;;;;;;;;;;;;;;9.88;100.00;101068.19;5072421;28;20007;-71
2021/09/04 03:50:33;;;;;;;;;;;;;;;9.88;100.00;101069.06;5072899;28;19924;-71
2021/09/04 03:53:00;;;;;;;;;;;;;;;9.87;100.00;101063.75;5072723;28;19982;-71
2021/09/04 03:55:26;;;;;;;;;;;;;;;9.91;100.00;101067.09;5072695;28;20387;-71
2021/09/04 03:57:54;;;;;;;;;;;;;;;9.95;100.00;101069.47;5014025;28;1666067;-71
2021/09/04 04:00:22;;;;;;;;;;;;;;;9.98;100.00;101073.81;5073828;28;20403;-71
2021/09/04 04:02:52;;;;;;;;;;;;;;;9.98;100.00;101063.84;5073526;28;19978;-71
2021/09/04 04:05:18;;;;;;;;;;;;;;;9.99;100.00;101064.69;5073391;28;19930;-71
2021/09/04 04:07:45;;;;;;;;;;;;;;;10.01;100.00;101073.59;5055629;28;19924;-71
2021/09/04 04:10:11;;;;;;;;;;;;;;;10.01;100.00;101076.31;5055861;28;20371;-71
2021/09/04 04:12:37;;;;;;;;;;;;;;;10.01;100.00;101079.03;5073729;28;19924;-71
2021/09/04 04:15:04;;;;;;;;;;;;;;;10.02;100.00;101083.44;5073432;28;20328;-71
2021/09/04 04:17:32;;;;;;;;;;;;;;;9.96;100.00;101087.47;5073559;28;19924;-71
2021/09/04 04:19:59;;;;;;;;;;;;;;;9.93;100.00;101086.81;5072986;28;19929;-71
2021/09/04 04:22:26;;;;;;;;;;;;;;;9.90;100.00;101082.53;5073446;28;19924;-71
2021/09/04 04:24:53;;;;;;;;;;;;;;;9.89;100.00;101088.91;5073571;28;19925;-71
2021/09/04 04:27:19;;;;;;;;;;;;;;;9.87;100.00;101093.56;5073150;28;20144;-71
2021/09/04 04:29:46;;;;;;;;;;;;;;;9.80;100.00;101087.72;5073495;28;19931;-71
2021/09/04 04:32:12;;;;;;;;;;;;;;;9.75;100.00;101089.03;5073636;28;19931;-71
2021/09/04 04:34:40;;;;;;;;;;;;;;;9.70;100.00;101097.50;5073249;28;19924;-71
2021/09/04 04:37:06;;;;;;;;;;;;;;;9.68;100.00;101094.03;5073025;28;19928;-71
2021/09/04 04:39:34;;;;;;;;;;;;;;;9.70;100.00;101097.50;5073231;28;19928;-71
2021/09/04 04:42:01;;;;;;;;;;;;;;;9.75;100.00;101100.75;5073235;28;19932;-71
2021/09/04 04:44:28;;;;;;;;;;;;;;;9.81;100.00;101102.16;5055080;28;19925;-71
2021/09/04 04:46:55;;;;;;;;;;;;;;;9.88;100.00;101100.72;5072932;28;20372;-71
2021/09/04 04:49:23;;;;;;;;;;;;;;;9.94;100.00;101100.31;5073044;28;19924;-71
2021/09/04 04:51:50;;;;;;;;;;;;;;;10.00;100.00;101107.13;5073013;28;19925;-71
2021/09/04 04:54:18;;;;;;;;;;;;;;;10.05;100.00;101103.06;5073171;28;20028;-71
2021/09/04 04:56:44;;;;;;;;;;;;;;;10.13;100.00;101105.25;5072149;28;19931;-71
2021/09/04 04:59:11;;;;;;;;;;;;;;;10.23;100.00;101105.41;5073100;28;20359;-72
2021/09/04 05:01:37;;;;;;;;;;;;;;;10.31;100.00;101108.44;5072585;28;20392;-71
2021/09/04 05:04:05;;;;;;;;;;;;;;;10.40;100.00;101101.50;5072767;28;20015;-71
2021/09/04 05:06:31;;;;;;;;;;;;;;;10.52;100.00;101110.56;5072564;28;19939;-71
2021/09/04 05:08:59;;;;;;;;;;;;;;;10.67;100.00;101108.53;5072214;28;19925;-71
2021/09/04 05:11:27;;;;;;;;;;;;;;;10.80;100.00;101106.63;5072709;28;19924;-71
2021/09/04 05:13:53;;;;;;;;;;;;;;;10.92;100.00;101112.97;5072043;28;20095;-71
2021/09/04 05:16:20;;;;;;;;;;;;;;;11.04;100.00;101114.75;5071962;28;19924;-71
2021/09/04 05:18:47;;;;;;;;;;;;;;;11.12;100.00;101108.72;5072270;28;19925;-71
2021/09/04 05:21:14;;;;;;;;;;;;;;;11.18;100.00;101110.97;5072524;28;20015;-71
2021/09/04 05:23:40;;;;;;;;;;;;;;;11.31;100.00;101112.72;5073014;28;19931;-71
2021/09/04 05:26:08;;;;;;;;;;;;;;;11.43;100.00;101106.31;5071871;28;20376;-71
2021/09/04 05:28:37;;;;;;;;;;;;;;;11.55;100.00;101104.47;5054462;28;19925;-72
2021/09/04 05:31:04;;;;;;;;;;;;;;;11.73;100.00;101104.84;5070455;28;20039;-71
2021/09/04 05:33:31;;;;;;;;;;;;;;;12.01;100.00;101097.22;5072214;28;19931;-71
2021/09/04 05:35:57;;;;;;;;;;;;;;;12.27;100.00;101096.97;5072004;28;19931;-71
2021/09/04 05:38:23;;;;;;;;;;;;;;;12.73;100.00;101101.25;5072325;28;19931;-71
2021/09/04 05:40:50;;;;;;;;;;;;;;;12.97;100.00;101100.19;5072052;28;19925;-72
2021/09/04 05:43:17;;;;;;;;;;;;;;;13.09;100.00;101090.94;5071857;28;20371;-72
2021/09/04 05:45:43;;;;;;;;;;;;;;;13.12;100.00;101084.38;5072045;28;20299;-72
2021/09/04 05:48:10;;;;;;;;;;;;;;;13.34;100.00;101094.28;5071510;28;20030;-71
2021/09/04 05:50:36;;;;;;;;;;;;;;;13.61;100.00;101092.88;5071973;28;20023;-72
2021/09/04 05:53:02;;;;;;;;;;;;;;;13.99;100.00;101089.47;5071773;28;20031;-72
2021/09/04 05:55:29;;;;;;;;;;;;;;;14.40;100.00;101082.09;5071654;28;19934;-72
2021/09/04 05:57:55;;;;;;;;;;;;;;;14.74;100.00;101083.59;5071517;28;20007;-72
2021/09/04 06:00:23;;;;;;;;;;;;;;;15.06;100.00;101085.19;5071699;28;19929;-72
2021/09/04 06:02:49;;;;;;;;;;;;;;;15.34;100.00;101083.41;5071930;28;19968;-72
2021/09/04 06:05:15;;;;;;;;;;;;;;;15.75;100.00;101077.66;5053250;28;19931;-72
2021/09/04 06:07:41;;;;;;;;;;;;;;;15.75;100.00;101069.44;5036913;28;19934;-72
2021/09/04 06:10:08;;;;;;;;;;;;;;;15.79;100.00;101067.28;5071678;28;20019;-72
2021/09/04 06:12:34;;;;;;;;;;;;;;;16.09;100.00;101063.44;5071303;28;20392;-72
2021/09/04 06:15:01;;;;;;;;;;;;;;;16.39;100.00;101064.09;5071493;28;19928;-73
2021/09/04 06:17:28;;;;;;;;;;;;;;;16.63;100.00;101066.22;5070861;28;19924;-72
2021/09/04 06:19:54;;;;;;;;;;;;;;;16.82;100.00;101059.75;5053948;28;19924;-72
2021/09/04 06:22:21;;;;;;;;;;;;;;;16.95;100.00;101064.00;5071504;28;19931;-72
2021/09/04 06:24:47;;;;;;;;;;;;;;;17.10;100.00;101059.63;5070834;28;19924;-72
2021/09/04 06:27:13;;;;;;;;;;;;;;;17.48;100.00;101054.78;5071005;28;19931;-72
2021/09/04 06:29:40;;;;;;;;;;;;;;;18.07;100.00;101048.56;5071062;28;20362;-72
2021/09/04 06:32:06;;;;;;;;;;;;;;;18.80;100.00;101048.88;5071169;28;19928;-72
2021/09/04 06:34:34;;;;;;;;;;;;;;;19.11;100.00;101059.22;5070961;28;20443;-72
2021/09/04 06:37:00;;;;;;;;;;;;;;;19.56;100.00;101053.16;5070971;28;20011;-72
2021/09/04 06:39:26;;;;;;;;;;;;;;;19.67;100.00;101053.78;5070997;28;20011;-72
2021/09/04 06:41:53;;;;;;;;;;;;;;;19.21;100.00;101058.03;5070628;28;20359;-72
2021/09/04 06:44:19;;;;;;;;;;;;;;;18.61;100.00;101058.31;5071353;28;19924;-72
2021/09/04 06:46:45;;;;;;;;;;;;;;;18.14;100.00;101062.50;5070539;28;20023;-72
2021/09/04 06:49:11;;;;;;;;;;;;;;;17.85;100.00;101061.84;5071174;28;20023;-72
2021/09/04 06:51:39;;;;;;;;;;;;;;;17.60;100.00;101069.09;5070950;28;20022;-72
2021/09/04 06:54:05;;;;;;;;;;;;;;;17.36;100.00;101067.06;5071109;28;19925;-71
2021/09/04 06:56:32;;;;;;;;;;;;;;;17.30;100.00;101079.50;5070793;28;20018;-72
2021/09/04 06:58:58;;;;;;;;;;;;;;;17.09;100.00;101077.13;5036309;28;19931;-72
2021/09/04 07:01:24;;;;;;;;;;;;;;;16.84;100.00;101074.13;5070900;28;19956;-71
2021/09/04 07:03:50;;;;;;;;;;;;;;;16.53;100.00;101082.75;5052834;28;20367;-72
2021/09/04 07:06:17;;;;;;;;;;;;;;;16.67;100.00;101084.06;5070942;28;20006;-72
2021/09/04 07:08:44;;;;;;;;;;;;;;;17.19;100.00;101075.13;5070482;28;20019;-72
2021/09/04 07:11:10;;;;;;;;;;;;;;;17.77;100.00;101075.53;5071088;28;20306;-72
2021/09/04 07:13:38;;;;;;;;;;;;;;;17.82;100.00;101078.63;5071089;28;19960;-71
2021/09/04 07:16:04;;;;;;;;;;;;;;;17.52;100.00;101082.75;5070478;28;20285;-71
2021/09/04 07:18:31;;;;;;;;;;;;;;;17.70;100.00;101086.31;5071010;28;19925;-71
2021/09/04 07:20:57;;;;;;;;;;;;;;;18.33;100.00;101089.72;5070320;28;19931;-72
2021/09/04 07:23:23;;;;;;;;;;;;;;;18.87;100.00;101083.78;5070838;28;19924;-71
2021/09/04 07:25:51;;;;;;;;;;;;;;;18.97;100.00;101086.41;5070388;28;19924;-72
2021/09/04 07:28:17;;;;;;;;;;;;;;;19.15;100.00;101097.25;5070673;28;19924;-71
2021/09/04 07:30:43;;;;;;;;;;;;;;;18.54;100.00;101097.47;5070859;28;19959;-72
2021/09/04 07:33:10;;;;;;;;;;;;;;;17.71;100.00;101104.47;5070549;28;19935;-71
2021/09/04 07:35:36;;;;;;;;;;;;;;;17.26;100.00;101104.69;5070360;28;19928;-71
2021/09/04 07:38:02;;;;;;;;;;;;;;;17.39;100.00;101105.13;5071678;28;19939;-71
2021/09/04 07:40:29;;;;;;;;;;;;;;;17.30;100.00;101109.69;5074364;28;20331;-71
2021/09/04 07:42:56;;;;;;;;;;;;;;;17.18;100.00;101106.34;5056217;28;19924;-71
2021/09/04 07:45:22;;;;;;;;;;;;;;;17.00;100.00;101105.50;5074244;28;19928;-71
2021/09/04 07:47:49;;;;;;;;;;;;;;;17.18;100.00;101114.59;5074079;28;20026;-71
2021/09/04 07:50:15;;;;;;;;;;;;;;;17.22;100.00;101098.66;5074106;28;20376;-72
2021/09/04 07:52:41;;;;;;;;;;;;;;;17.13;100.00;101097.75;5074138;28;19929;-72
2021/09/04 07:55:08;;;;;;;;;;;;;;;17.18;100.00;101109.09;5073561;28;19925;-72
2021/09/04 07:57:34;;;;;;;;;;;;;;;17.20;100.00;101111.69;5073844;28;19936;-72
2021/09/04 08:00:02;;;;;;;;;;;;;;;17.40;100.00;101110.44;5073816;28;19924;-71
2021/09/04 08:02:38;;;;;;;;;;;;;;;17.45;100.00;101110.00;5074044;28;19931;-72
2021/09/04 08:05:05;;;;;;;;;;;;;;;17.62;100.00;101110.94;5073899;28;19931;-71
2021/09/04 08:07:31;;;;;;;;;;;;;;;17.96;100.00;101118.38;5073582;28;19924;-72
2021/09/04 08:09:57;;;;;;;;;;;;;;;17.90;100.00;101113.50;5073724;28;19924;-72
2021/09/04 08:12:24;;;;;;;;;;;;;;;18.32;100.00;101120.97;5073243;28;19986;-72
2021/09/04 08:14:50;;;;;;;;;;;;;;;18.30;100.00;101130.38;5073355;28;20017;-72
2021/09/04 08:17:18;;;;;;;;;;;;;;;18.35;100.00;101128.00;5073411;28;20272;-72
2021/09/04 08:19:44;;;;;;;;;;;;;;;17.65;100.00;101127.09;5073722;28;20015;-72
2021/09/04 08:22:10;;;;;;;;;;;;;;;17.85;100.00;101133.22;5073419;28;19924;-71
2021/09/04 08:24:37;;;;;;;;;;;;;;;17.80;100.00;101124.63;5073164;28;19967;-72
2021/09/04 08:27:03;;;;;;;;;;;;;;;17.35;100.00;101134.75;5073278;28;19928;-72
2021/09/04 08:29:30;;;;;;;;;;;;;;;17.81;100.00;101139.19;5073322;28;19931;-71
2021/09/04 08:31:56;;;;;;;;;;;;;;;18.33;100.00;101141.03;5073394;28;19952;-71
2021/09/04 08:34:23;;;;;;;;;;;;;;;18.50;100.00;101125.47;5073358;28;20547;-72
2021/09/04 08:36:51;;;;;;;;;;;;;;;19.36;100.00;101131.63;5072944;28;20031;-72
2021/09/04 08:39:17;;;;;;;;;;;;;;;20.07;100.00;101129.13;5073223;28;19995;-72
2021/09/04 08:41:43;;;;;;;;;;;;;;;20.31;100.00;101130.94;5073168;28;20027;-72
2021/09/04 08:44:09;;;;;;;;;;;;;;;20.57;100.00;101124.25;5072931;28;19924;-72
2021/09/04 08:46:37;;;;;;;;;;;;;;;21.27;100.00;101124.28;5072218;28;20450;-72
2021/09/04 08:49:04;;;;;;;;;;;;;;;21.28;100.00;101123.25;5054198;28;20023;-72
2021/09/04 08:51:32;;;;;;;;;;;;;;;21.38;100.00;101121.97;5072302;28;19930;-72
2021/09/04 08:53:59;;;;;;;;;;;;;;;21.99;100.00;101121.00;5054694;28;19972;-72
2021/09/04 08:56:25;;;;;;;;;;;;;;;21.92;100.00;101124.75;5072786;28;19971;-72
2021/09/04 08:58:52;;;;;;;;;;;;;;;22.20;100.00;101119.38;5072122;28;19929;-72
2021/09/04 09:01:18;;;;;;;;;;;;;;;22.07;100.00;101126.47;5072655;28;19925;-72
2021/09/04 09:03:45;;;;;;;;;;;;;;;22.31;100.00;101118.88;5072297;28;20409;-72
2021/09/04 09:06:11;;;;;;;;;;;;;;;22.41;100.00;101126.94;5072341;28;19931;-72
2021/09/04 09:08:43;;;;;;;;;;;;;;;22.63;100.00;101127.81;5072535;28;19974;-72
2021/09/04 09:11:10;;;;;;;;;;;;;;;22.71;100.00;101124.09;5072452;28;19935;-72
2021/09/04 09:13:45;;;;;;;;;;;;;;;23.04;100.00;101129.13;5072586;28;19993;-72
2021/09/04 09:16:13;;;;;;;;;;;;;;;23.05;100.00;101125.31;5072138;28;19932;-72
2021/09/04 09:18:39;;;;;;;;;;;;;;;23.10;100.00;101131.09;5054195;28;19974;-72
2021/09/04 09:21:05;;;;;;;;;;;;;;;23.15;100.00;101134.16;5072120;28;19924;-72
2021/09/04 09:23:32;;;;;;;;;;;;;;;23.43;100.00;101133.34;5072202;28;19925;-72
2021/09/04 09:26:08;;;;;;;;;;;;;;;23.52;100.00;101125.75;5072095;28;19931;-72
2021/09/04 09:28:34;;;;;;;;;;;;;;;23.29;100.00;101132.38;5072071;28;19931;-72
2021/09/04 09:31:00;;;;;;;;;;;;;;;23.46;100.00;101132.09;5072180;28;19932;-72
2021/09/04 09:33:28;;;;;;;;;;;;;;;23.92;100.00;101136.28;5072009;28;20281;-72
2021/09/04 09:35:55;;;;;;;;;;;;;;;23.79;100.00;101135.13;5071983;28;20372;-72
2021/09/04 09:38:22;;;;;;;;;;;;;;;23.22;100.00;101131.44;5071931;28;19982;-72
2021/09/04 09:40:49;;;;;;;;;;;;;;;22.70;100.00;101128.78;5072334;28;19931;-72
2021/09/04 09:43:18;;;;;;;;;;;;;;;22.47;100.00;101128.91;5071897;28;19925;-72
2021/09/04 09:45:46;;;;;;;;;;;;;;;22.41;100.00;101129.69;5071576;28;19925;-72
2021/09/04 09:48:12;;;;;;;;;;;;;;;22.32;100.00;101133.59;5071695;28;19925;-72
2021/09/04 09:50:38;;;;;;;;;;;;;;;23.46;100.00;101132.94;5071989;28;19925;-72
2021/09/04 09:53:05;;;;;;;;;;;;;;;23.62;100.00;101134.56;5071768;28;19935;-72
2021/09/04 09:55:32;;;;;;;;;;;;;;;23.47;100.00;101140.19;5071576;28;19935;-72
2021/09/04 09:57:58;;;;;;;;;;;;;;;22.95;100.00;101142.22;5071019;28;19950;-73
2021/09/04 10:00:28;;;;;;;;;;;;;;;22.78;100.00;101138.84;5071193;28;20384;-72
2021/09/04 10:02:57;;;;;;;;;;;;;;;22.34;100.00;101139.75;5070743;28;20027;-72
2021/09/04 10:05:25;;;;;;;;;;;;;;;22.79;100.00;101139.72;5071310;28;19928;-72
2021/09/04 10:07:53;;;;;;;;;;;;;;;22.92;100.00;101137.09;5070952;28;19963;-71
2021/09/04 10:10:20;;;;;;;;;;;;;;;22.57;100.00;101137.75;5071759;28;20384;-72
2021/09/04 10:12:47;;;;;;;;;;;;;;;22.54;100.00;101137.28;5070801;28;19924;-72
2021/09/04 10:15:13;;;;;;;;;;;;;;;22.79;100.00;101135.03;5071379;28;19932;-72
2021/09/04 10:17:41;;;;;;;;;;;;;;;23.56;100.00;101136.22;5070177;28;20295;-72
2021/09/04 10:20:08;;;;;;;;;;;;;;;23.91;100.00;101138.22;5070865;28;20400;-72
2021/09/04 10:22:34;;;;;;;;;;;;;;;23.10;100.00;101131.09;5071256;28;19925;-72
2021/09/04 10:25:02;;;;;;;;;;;;;;;22.85;100.00;101128.72;5070883;28;19951;-72
2021/09/04 10:27:30;;;;;;;;;;;;;;;22.66;100.00;101132.09;5071119;28;19929;-72
2021/09/04 10:29:56;;;;;;;;;;;;;;;22.69;100.00;101134.50;5071237;28;19931;-72
2021/09/04 10:32:23;;;;;;;;;;;;;;;21.60;100.00;101132.31;5053297;28;19924;-72
2021/09/04 10:35:03;;;;;;;;;;;;;;;21.61;100.00;101129.38;5071136;28;19931;-72
2021/09/04 10:37:29;;;;;;;;;;;;;;;22.52;100.00;101129.19;5052907;28;19924;-72
2021/09/04 10:39:57;;;;;;;;;;;;;;;22.73;100.00;101124.75;5052898;28;20031;-72
2021/09/04 10:42:27;;;;;;;;;;;;;;;23.09;100.00;101129.41;5070983;28;19931;-72
2021/09/04 10:44:57;;;;;;;;;;;;;;;22.34;100.00;101128.69;5071138;28;20022;-72
2021/09/04 10:47:24;;;;;;;;;;;;;;;22.63;100.00;101124.22;5070777;28;19928;-72
2021/09/04 10:49:53;;;;;;;;;;;;;;;22.78;100.00;101127.78;5070998;28;19924;-72
2021/09/04 10:52:38;;;;;;;;;;;;;;;23.02;100.00;101123.78;5071187;28;20391;-72
2021/09/04 10:55:04;;;;;;;;;;;;;;;22.29;100.00;101128.41;5070516;28;20019;-72
2021/09/04 10:57:44;;;;;;;;;;;;;;;22.17;100.00;101126.16;5070703;28;19924;-72
2021/09/04 11:00:17;;;;;;;;;;;;;;;23.05;100.00;101126.16;5070775;28;20015;-72
2021/09/04 11:02:48;;;;;;;;;;;;;;;23.31;100.00;101123.88;5071391;28;20366;-72
2021/09/04 11:05:29;;;;;;;;;;;;;;;23.53;100.00;101130.22;5070679;28;19931;-71
2021/09/04 11:08:01;;;;;;;;;;;;;;;23.56;100.00;101130.69;5070396;28;20027;-72
2021/09/04 11:10:28;;;;;;;;;;;;;;;23.45;100.00;101128.47;5070588;28;19977;-71
2021/09/04 11:13:07;;;;;;;;;;;;;;;23.58;100.00;101122.16;5071173;28;19935;-72
2021/09/04 11:15:33;;;;;;;;;;;;;;;23.14;100.00;101131.59;5074776;28;20384;-71
2021/09/04 11:18:00;;;;;;;;;;;;;;;23.14;100.00;101123.28;5074338;28;19931;-72
2021/09/04 11:20:26;;;;;;;;;;;;;;;23.06;100.00;101129.78;5074545;28;20011;-72
2021/09/04 11:22:54;;;;;;;;;;;;;;;22.78;100.00;101125.00;5074291;28;19925;-72
2021/09/04 11:25:21;;;;;;;;;;;;;;;23.46;100.00;101129.31;5074683;28;19930;-72
2021/09/04 11:27:47;;;;;;;;;;;;;;;23.49;100.00;101128.91;5074190;28;19928;-72
2021/09/04 11:30:16;;;;;;;;;;;;;;;23.45;100.00;101125.69;5074420;28;20015;-72
2021/09/04 11:32:42;;;;;;;;;;;;;;;23.57;100.00;101129.63;5074214;28;19925;-72
2021/09/04 11:35:09;;;;;;;;;;;;;;;23.34;100.00;101127.09;5074327;28;20027;-71
2021/09/04 11:37:36;;;;;;;;;;;;;;;23.78;100.00;101136.16;5074316;28;19970;-72
2021/09/04 11:40:06;;;;;;;;;;;;;;;23.93;100.00;101132.47;5074135;28;19952;-72
2021/09/04 11:42:33;;;;;;;;;;;;;;;23.53;100.00;101135.75;5074478;28;20342;-72
2021/09/04 11:45:01;;;;;;;;;;;;;;;23.40;100.00;101125.44;5074254;28;20039;-71
2021/09/04 11:47:28;;;;;;;;;;;;;;;23.66;100.00;101129.47;5073578;28;19960;-72
2021/09/04 11:49:55;;;;;;;;;;;;;;;23.66;100.00;101129.47;5073967;28;19930;-72
2021/09/04 11:52:23;;;;;;;;;;;;;;;23.62;100.00;101129.00;5073739;28;19951;-71
2021/09/04 11:54:50;;;;;;;;;;;;;;;24.00;100.00;101133.38;5073791;28;20016;-72
2021/09/04 11:57:25;;;;;;;;;;;;;;;24.16;100.00;101134.94;5073366;28;19925;-72
2021/09/04 11:59:58;;;;;;;;;;;;;;;23.71;100.00;101135.28;5073967;28;20485;-72
2021/09/04 12:02:24;;;;;;;;;;;;;;;23.73;100.00;101131.25;5074031;28;19973;-72
2021/09/04 12:04:50;;;;;;;;;;;;;;;23.70;100.00;101126.13;5073389;28;19924;-72
2021/09/04 12:07:17;;;;;;;;;;;;;;;24.07;100.00;101131.50;5073510;28;19924;-72
2021/09/04 12:09:44;;;;;;;;;;;;;;;24.84;100.00;101123.94;5073160;28;19924;-72
2021/09/04 12:12:10;;;;;;;;;;;;;;;25.14;100.00;101131.03;5073546;28;19924;-72
2021/09/04 12:14:38;;;;;;;;;;;;;;;24.49;100.00;101135.13;5055033;28;19933;-72
2021/09/04 12:17:06;;;;;;;;;;;;;;;24.15;100.00;101142.41;5073278;28;19925;-72
2021/09/04 12:19:37;;;;;;;;;;;;;;;23.83;100.00;101138.34;5073737;28;19929;-71
2021/09/04 12:22:03;;;;;;;;;;;;;;;23.64;100.00;101132.44;5073614;28;20447;-72
2021/09/04 12:24:33;;;;;;;;;;;;;;;23.40;100.00;101133.75;5073369;28;19925;-71
2021/09/04 12:26:59;;;;;;;;;;;;;;;23.74;100.00;101127.41;5072927;28;20061;-72
2021/09/04 12:29:28;;;;;;;;;;;;;;;23.64;100.00;101142.69;5073094;28;20419;-71